Time;durP1;ratioP1;P1;durP2;ratioP2;P2;SDS_P1;SDS_P2;PMS_P1;PMS_P2;Temp;Humidity;BMP_temperature;BMP_pressure;BME280_temperature;BME280_humidity;BME280_pressure;Samples;Min_cycle;Max_cycle;Signal;HPM_P1;HPM_P2
2023/10/31 00:02:19;;;;;;;6.15;4.35;;;17.60;72.30;;;;;;5064911;28;20115;-82
2023/10/31 00:04:45;;;;;;;6.32;4.15;;;17.60;72.10;;;;;;5065233;28;20131;-81
2023/10/31 00:07:11;;;;;;;6.47;4.40;;;17.60;72.30;;;;;;5064874;28;20463;-73
2023/10/31 00:09:39;;;;;;;4.18;3.67;;;17.60;72.20;;;;;;5065001;28;20067;-74
2023/10/31 00:12:04;;;;;;;4.45;3.67;;;17.60;72.10;;;;;;5064828;28;20123;-71
2023/10/31 00:14:30;;;;;;;4.28;3.72;;;17.60;72.20;;;;;;5063366;28;20131;-72
2023/10/31 00:16:56;;;;;;;4.45;3.60;;;17.60;72.30;;;;;;5066566;28;20037;-74
2023/10/31 00:19:21;;;;;;;4.15;3.70;;;17.60;72.30;;;;;;5065819;28;20044;-72
2023/10/31 00:21:47;;;;;;;4.60;3.47;;;17.60;72.20;;;;;;5064919;28;20048;-71
2023/10/31 00:24:12;;;;;;;3.88;3.45;;;17.60;72.30;;;;;;5065581;28;20617;-72
2023/10/31 00:26:38;;;;;;;4.78;3.22;;;17.60;72.30;;;;;;5064635;28;20503;-71
2023/10/31 00:29:03;;;;;;;3.70;3.22;;;17.60;72.20;;;;;;5062446;28;20044;-71
2023/10/31 00:31:29;;;;;;;6.32;4.32;;;17.60;72.10;;;;;;5064064;28;20047;-72
2023/10/31 00:33:55;;;;;;;4.18;3.72;;;17.60;72.30;;;;;;5063395;28;20090;-71
2023/10/31 00:36:21;;;;;;;4.28;3.38;;;17.60;72.30;;;;;;5065016;28;20040;-71
2023/10/31 00:38:46;;;;;;;4.88;3.28;;;17.60;72.20;;;;;;5063799;28;20040;-72
2023/10/31 00:41:12;;;;;;;3.83;3.42;;;17.60;72.10;;;;;;5066399;28;20025;-72
2023/10/31 00:43:37;;;;;;;3.10;2.78;;;17.60;72.00;;;;;;5064872;28;20490;-71
2023/10/31 00:46:03;;;;;;;3.90;3.17;;;17.60;72.10;;;;;;5064251;28;20036;-72
2023/10/31 00:48:29;;;;;;;3.13;2.75;;;17.60;72.10;;;;;;5063791;28;20107;-72
2023/10/31 00:50:54;;;;;;;3.20;2.88;;;17.60;72.10;;;;;;5064107;28;20109;-72
2023/10/31 00:53:20;;;;;;;3.13;2.83;;;17.60;72.10;;;;;;5063416;28;20532;-72
2023/10/31 00:55:45;;;;;;;3.40;3.10;;;17.60;72.10;;;;;;5061637;28;20043;-71
2023/10/31 00:58:11;;;;;;;3.17;2.88;;;17.60;72.10;;;;;;5065291;28;20071;-71
2023/10/31 01:00:37;;;;;;;4.30;3.00;;;17.60;72.10;;;;;;5064699;28;20060;-71
2023/10/31 01:03:03;;;;;;;2.97;2.60;;;17.60;72.20;;;;;;5064596;28;20037;-72
2023/10/31 01:05:28;;;;;;;2.72;2.53;;;17.60;72.20;;;;;;5061100;28;20513;-72
2023/10/31 01:07:55;;;;;;;2.67;2.38;;;17.60;72.30;;;;;;5063156;28;20613;-72
2023/10/31 01:10:20;;;;;;;2.80;2.60;;;17.60;72.20;;;;;;5061439;28;20445;-71
2023/10/31 01:12:46;;;;;;;3.60;2.67;;;17.60;72.00;;;;;;5065161;28;20090;-72
2023/10/31 01:15:11;;;;;;;2.65;2.45;;;17.60;72.20;;;;;;5068111;28;20059;-71
2023/10/31 01:17:37;;;;;;;3.70;3.30;;;17.50;72.00;;;;;;5060375;28;20102;-72
2023/10/31 01:20:03;;;;;;;2.97;2.67;;;17.50;72.00;;;;;;5059471;28;20060;-71
2023/10/31 01:22:28;;;;;;;2.97;2.67;;;17.60;72.10;;;;;;5061098;28;20040;-72
2023/10/31 01:24:54;;;;;;;2.85;2.40;;;17.60;72.10;;;;;;5059122;28;20513;-72
2023/10/31 01:27:19;;;;;;;3.25;2.75;;;17.50;72.00;;;;;;5063245;28;20094;-71
2023/10/31 01:29:45;;;;;;;3.20;3.00;;;17.60;72.20;;;;;;5063355;28;20052;-71
2023/10/31 01:32:11;;;;;;;3.25;2.88;;;17.60;72.10;;;;;;5063933;28;20045;-71
2023/10/31 01:34:37;;;;;;;3.55;2.65;;;17.50;72.10;;;;;;5062568;28;20135;-71
2023/10/31 01:37:03;;;;;;;3.10;2.80;;;17.60;72.10;;;;;;5060137;28;20132;-71
2023/10/31 01:39:28;;;;;;;2.90;2.63;;;17.60;72.10;;;;;;5062237;28;20044;-72
2023/10/31 01:41:54;;;;;;;2.85;2.65;;;17.60;72.10;;;;;;5061107;28;20048;-74
2023/10/31 01:44:20;;;;;;;3.42;2.60;;;17.60;72.10;;;;;;5062334;28;20483;-74
2023/10/31 01:46:46;;;;;;;2.70;2.50;;;17.60;72.30;;;;;;5060523;28;20040;-73
2023/10/31 01:49:11;;;;;;;3.90;2.50;;;17.60;72.20;;;;;;5061113;28;20041;-73
2023/10/31 01:51:37;;;;;;;2.90;2.63;;;17.60;72.20;;;;;;5062721;28;20053;-74
2023/10/31 01:54:03;;;;;;;2.50;2.30;;;17.60;72.00;;;;;;5061206;28;20048;-73
2023/10/31 01:56:29;;;;;;;2.83;2.63;;;17.60;72.20;;;;;;5062992;28;20051;-73
2023/10/31 01:58:54;;;;;;;2.10;2.00;;;17.60;72.20;;;;;;5095596;28;20044;-73
2023/10/31 02:01:20;;;;;;;2.45;2.25;;;17.60;72.20;;;;;;5092091;28;20036;-74
2023/10/31 02:03:45;;;;;;;2.22;2.03;;;17.60;72.10;;;;;;5062935;28;20052;-73
2023/10/31 02:06:11;;;;;;;2.85;2.45;;;17.60;72.00;;;;;;5062804;28;20513;-73
2023/10/31 02:08:36;;;;;;;2.38;2.17;;;17.50;72.20;;;;;;5060095;28;20040;-73
2023/10/31 02:11:03;;;;;;;1.92;1.83;;;17.50;72.10;;;;;;5061433;28;20436;-73
2023/10/31 02:13:29;;;;;;;2.13;2.03;;;17.60;72.10;;;;;;5060552;28;20074;-74
2023/10/31 02:15:55;;;;;;;2.60;2.10;;;17.60;72.10;;;;;;5061980;28;20091;-73
2023/10/31 02:18:20;;;;;;;2.35;2.15;;;17.50;72.00;;;;;;5065361;28;20048;-74
2023/10/31 02:20:46;;;;;;;2.17;2.08;;;17.50;72.00;;;;;;5059457;28;20044;-73
2023/10/31 02:23:11;;;;;;;2.10;1.92;;;17.50;72.20;;;;;;5056062;28;20037;-74
2023/10/31 02:25:37;;;;;;;2.13;1.95;;;17.50;72.10;;;;;;5061301;28;20036;-73
2023/10/31 02:28:03;;;;;;;2.00;1.90;;;17.50;72.10;;;;;;5060141;28;20030;-73
2023/10/31 02:30:28;;;;;;;1.83;1.73;;;17.50;72.10;;;;;;5063423;28;20581;-73
2023/10/31 02:32:54;;;;;;;1.85;1.75;;;17.50;72.10;;;;;;5062024;28;20119;-73
2023/10/31 02:35:19;;;;;;;2.63;1.80;;;17.50;72.10;;;;;;5060434;28;20040;-73
2023/10/31 02:37:46;;;;;;;2.30;2.10;;;17.50;72.10;;;;;;5061805;28;20529;-73
2023/10/31 02:40:12;;;;;;;2.22;2.03;;;17.50;72.00;;;;;;5060962;28;20048;-73
2023/10/31 02:42:37;;;;;;;2.00;1.70;;;17.50;72.10;;;;;;5062139;28;20032;-73
2023/10/31 02:45:03;;;;;;;1.85;1.75;;;17.50;72.20;;;;;;5060690;28;20044;-73
2023/10/31 02:47:29;;;;;;;1.90;1.80;;;17.50;72.10;;;;;;5059352;28;20508;-73
2023/10/31 02:49:55;;;;;;;2.20;2.00;;;17.50;72.10;;;;;;5059760;28;20043;-73
2023/10/31 02:52:20;;;;;;;2.15;1.73;;;17.50;72.20;;;;;;5061539;28;20025;-73
2023/10/31 02:54:46;;;;;;;1.70;1.60;;;17.50;72.10;;;;;;5040370;28;20049;-73
2023/10/31 02:57:12;;;;;;;1.75;1.65;;;17.50;72.20;;;;;;5044942;28;20048;-73
2023/10/31 02:59:37;;;;;;;1.92;1.80;;;17.40;72.10;;;;;;5043625;28;20033;-73
2023/10/31 03:02:03;;;;;;;2.13;2.00;;;17.50;72.20;;;;;;5041859;28;20037;-73
2023/10/31 03:04:28;;;;;;;1.67;1.58;;;17.50;72.20;;;;;;5040895;28;20503;-73
2023/10/31 03:06:54;;;;;;;1.80;1.70;;;17.50;72.20;;;;;;5053943;28;20059;-73
2023/10/31 03:09:20;;;;;;;1.52;1.42;;;17.50;72.10;;;;;;5061864;28;20052;-73
2023/10/31 03:11:45;;;;;;;2.15;1.80;;;17.50;72.20;;;;;;5060231;28;20029;-73
2023/10/31 03:14:11;;;;;;;1.45;1.35;;;17.50;72.10;;;;;;5061825;28;20047;-73
2023/10/31 03:16:36;;;;;;;1.90;1.80;;;17.50;72.20;;;;;;5059445;28;20100;-73
2023/10/31 03:19:02;;;;;;;1.90;1.60;;;17.50;72.20;;;;;;5062693;28;20033;-73
2023/10/31 03:21:27;;;;;;;1.65;1.55;;;17.50;72.10;;;;;;5060562;28;20053;-73
2023/10/31 03:23:55;;;;;;;2.20;1.50;;;17.50;72.10;;;;;;5059644;28;20036;-73
2023/10/31 03:26:21;;;;;;;1.67;1.58;;;17.50;72.10;;;;;;5060835;28;20036;-73
2023/10/31 03:28:47;;;;;;;1.77;1.67;;;17.50;72.10;;;;;;5057958;28;20029;-73
2023/10/31 03:31:12;;;;;;;1.60;1.50;;;17.50;72.10;;;;;;5062702;28;20045;-73
2023/10/31 03:33:38;;;;;;;1.73;1.50;;;17.50;72.10;;;;;;5062275;28;20554;-73
2023/10/31 03:36:05;;;;;;;1.30;1.20;;;17.50;72.10;;;;;;5061257;28;20044;-74
2023/10/31 03:38:31;;;;;;;1.25;1.15;;;17.50;72.10;;;;;;5058973;28;20033;-74
2023/10/31 03:40:56;;;;;;;1.65;1.55;;;17.50;72.10;;;;;;5062374;28;20532;-73
2023/10/31 03:43:22;;;;;;;1.70;1.60;;;17.50;72.10;;;;;;5062976;28;20036;-73
2023/10/31 03:45:47;;;;;;;1.23;1.20;;;17.50;72.00;;;;;;5063586;28;20040;-73
2023/10/31 03:48:13;;;;;;;1.60;1.20;;;17.50;72.10;;;;;;5067464;28;20032;-74
2023/10/31 03:50:39;;;;;;;1.50;1.30;;;17.50;72.00;;;;;;5063101;28;20063;-74
2023/10/31 03:53:04;;;;;;;1.42;1.33;;;17.50;72.00;;;;;;5064222;28;20033;-73
2023/10/31 03:55:30;;;;;;;1.50;1.17;;;17.50;72.10;;;;;;5063719;28;20391;-74
2023/10/31 03:57:56;;;;;;;1.52;1.42;;;17.50;72.10;;;;;;5064362;28;20037;-73
2023/10/31 04:00:21;;;;;;;1.30;1.20;;;17.50;72.00;;;;;;5069429;28;20040;-73
2023/10/31 04:02:47;;;;;;;1.20;1.10;;;17.50;72.00;;;;;;5062309;28;20032;-73
2023/10/31 04:05:12;;;;;;;1.30;1.20;;;17.50;72.00;;;;;;5063843;28;20060;-73
2023/10/31 04:07:38;;;;;;;2.20;1.20;;;17.50;71.90;;;;;;5061038;28;20041;-74
2023/10/31 04:10:04;;;;;;;1.20;1.10;;;17.50;71.90;;;;;;5063356;28;20037;-74
2023/10/31 04:12:30;;;;;;;1.50;1.15;;;17.50;71.90;;;;;;5067187;28;20029;-74
2023/10/31 04:14:55;;;;;;;1.50;1.40;;;17.50;71.90;;;;;;5063182;28;20048;-74
2023/10/31 04:17:21;;;;;;;1.20;1.10;;;17.50;71.90;;;;;;5063593;28;20028;-73
2023/10/31 04:19:46;;;;;;;1.13;1.02;;;17.40;71.80;;;;;;5063726;28;20438;-74
2023/10/31 04:22:12;;;;;;;1.45;1.35;;;17.40;71.80;;;;;;5062446;28;20057;-74
2023/10/31 04:24:37;;;;;;;1.08;1.00;;;17.50;71.80;;;;;;5063764;28;20094;-74
2023/10/31 04:27:03;;;;;;;1.10;1.00;;;17.50;71.90;;;;;;5066387;28;20105;-73
2023/10/31 04:29:28;;;;;;;0.82;0.82;;;17.40;71.90;;;;;;5062426;28;20040;-74
2023/10/31 04:31:54;;;;;;;1.15;0.95;;;17.40;71.80;;;;;;5066900;28;20033;-74
2023/10/31 04:34:20;;;;;;;1.30;1.17;;;17.40;71.80;;;;;;5063809;28;20549;-73
2023/10/31 04:36:45;;;;;;;0.98;0.90;;;17.40;71.90;;;;;;5064285;28;20035;-74
2023/10/31 04:39:11;;;;;;;1.17;1.08;;;17.40;71.90;;;;;;5061546;28;20464;-74
2023/10/31 04:41:36;;;;;;;1.35;1.13;;;17.40;71.90;;;;;;5063966;28;20036;-73
2023/10/31 04:44:02;;;;;;;2.05;1.15;;;17.40;71.90;;;;;;5093799;28;20053;-73
2023/10/31 04:46:28;;;;;;;1.20;1.20;;;17.40;71.90;;;;;;5061362;28;20021;-75
2023/10/31 04:48:53;;;;;;;2.97;0.93;;;17.40;71.90;;;;;;5063509;28;20094;-73
2023/10/31 04:51:19;;;;;;;1.65;1.00;;;17.40;71.90;;;;;;5062870;28;20025;-73
2023/10/31 04:53:45;;;;;;;1.15;1.10;;;17.40;72.60;;;;;;5061131;28;20577;-73
2023/10/31 04:56:14;;;;;;;1.15;1.05;;;17.40;71.80;;;;;;5062572;28;20417;-73
2023/10/31 04:58:40;;;;;;;0.80;0.80;;;17.40;71.90;;;;;;5060428;28;20039;-73
2023/10/31 05:01:13;;;;;;;1.00;0.88;;;17.40;71.80;;;;;;5080158;28;20047;-74
2023/10/31 05:03:38;;;;;;;0.95;0.80;;;17.40;71.90;;;;;;5060716;28;20036;-73
2023/10/31 05:06:04;;;;;;;1.02;0.90;;;17.40;71.90;;;;;;5062821;28;20025;-73
2023/10/31 05:08:30;;;;;;;1.00;0.98;;;17.40;71.80;;;;;;5059340;28;20112;-74
2023/10/31 05:10:57;;;;;;;0.80;0.70;;;17.40;71.90;;;;;;5061659;28;20120;-73
2023/10/31 05:13:22;;;;;;;1.00;1.00;;;17.40;71.90;;;;;;5062684;28;20136;-73
2023/10/31 05:15:48;;;;;;;0.80;0.80;;;17.40;71.90;;;;;;5063534;28;20537;-73
2023/10/31 05:18:13;;;;;;;0.75;0.70;;;17.40;71.80;;;;;;5066111;28;20056;-73
2023/10/31 05:20:39;;;;;;;0.80;0.70;;;17.40;71.90;;;;;;5060260;28;20048;-73
2023/10/31 05:23:05;;;;;;;1.33;1.23;;;17.40;71.90;;;;;;5060725;28;20044;-74
2023/10/31 05:25:30;;;;;;;0.93;0.93;;;17.40;71.90;;;;;;5060180;28;20052;-74
2023/10/31 05:27:56;;;;;;;0.80;0.80;;;17.40;71.80;;;;;;5061050;28;20534;-73
2023/10/31 05:30:22;;;;;;;0.80;0.80;;;17.40;71.90;;;;;;5062829;28;20056;-73
2023/10/31 05:32:49;;;;;;;1.15;0.80;;;17.40;71.80;;;;;;5061151;28;20090;-73
2023/10/31 05:35:15;;;;;;;0.95;0.85;;;17.40;71.90;;;;;;5058682;28;20036;-73
2023/10/31 05:37:40;;;;;;;1.08;1.00;;;17.40;71.90;;;;;;5060264;28;20044;-73
2023/10/31 05:40:06;;;;;;;1.10;0.98;;;17.40;71.90;;;;;;5062838;28;20120;-73
2023/10/31 05:42:32;;;;;;;0.85;0.68;;;17.40;71.90;;;;;;5065097;28;20045;-74
2023/10/31 05:44:57;;;;;;;0.73;0.70;;;17.40;72.60;;;;;;5062181;28;20056;-73
2023/10/31 05:47:23;;;;;;;0.60;0.60;;;17.40;71.80;;;;;;5062166;28;20119;-73
2023/10/31 05:49:49;;;;;;;0.70;0.70;;;17.40;71.60;;;;;;5061310;28;20502;-73
2023/10/31 05:52:14;;;;;;;0.60;0.60;;;17.40;71.70;;;;;;5060170;28;20515;-73
2023/10/31 05:54:40;;;;;;;0.60;0.60;;;17.40;71.70;;;;;;5062623;28;20052;-73
2023/10/31 05:57:05;;;;;;;0.80;0.80;;;17.40;71.80;;;;;;5062302;28;20183;-73
2023/10/31 05:59:32;;;;;;;0.60;0.60;;;17.40;71.70;;;;;;5063685;28;20051;-73
2023/10/31 06:01:58;;;;;;;0.80;0.70;;;17.40;71.70;;;;;;5062682;28;20064;-73
2023/10/31 06:04:24;;;;;;;0.50;0.50;;;17.40;71.80;;;;;;5062305;28;20502;-73
2023/10/31 06:06:50;;;;;;;1.75;0.77;;;17.40;71.60;;;;;;5061928;28;20040;-73
2023/10/31 06:09:16;;;;;;;0.60;0.60;;;17.40;71.70;;;;;;5064212;28;20032;-73
2023/10/31 06:11:42;;;;;;;0.60;0.60;;;17.40;71.70;;;;;;5043211;28;20050;-73
2023/10/31 06:14:08;;;;;;;0.70;0.70;;;17.40;71.70;;;;;;5061674;28;20036;-73
2023/10/31 06:16:42;;;;;;;0.70;0.70;;;17.40;71.70;;;;;;5061654;28;20094;-74
2023/10/31 06:19:08;;;;;;;;;;;17.30;71.60;;;;;;5061725;28;20113;-73
2023/10/31 06:21:33;;;;;;;0.60;0.60;;;17.30;71.70;;;;;;5063493;28;19916;-75
2023/10/31 06:23:59;;;;;;;0.57;0.57;;;17.40;71.70;;;;;;5063965;28;20040;-73
2023/10/31 06:26:24;;;;;;;0.70;0.63;;;17.30;71.70;;;;;;5062525;28;20054;-73
2023/10/31 06:28:50;;;;;;;0.70;0.60;;;17.30;71.70;;;;;;5061668;28;20542;-73
2023/10/31 06:31:16;;;;;;;0.60;0.60;;;17.30;71.60;;;;;;5061836;28;20109;-73
2023/10/31 06:33:41;;;;;;;0.70;0.60;;;17.30;71.70;;;;;;5061234;28;20041;-73
2023/10/31 06:36:07;;;;;;;0.68;0.60;;;17.40;71.80;;;;;;5061348;28;20082;-73
2023/10/31 06:38:33;;;;;;;0.60;0.50;;;17.30;71.70;;;;;;5061424;28;20068;-72
2023/10/31 06:40:59;;;;;;;0.40;0.40;;;17.30;71.60;;;;;;5057538;28;20041;-73
2023/10/31 06:43:24;;;;;;;0.75;0.60;;;17.30;71.70;;;;;;5052697;28;20580;-73
2023/10/31 06:45:50;;;;;;;0.60;0.60;;;17.30;71.60;;;;;;5057397;28;20079;-73
2023/10/31 06:48:15;;;;;;;2.08;0.70;;;17.30;71.70;;;;;;5060503;28;20409;-72
2023/10/31 06:50:41;;;;;;;0.50;0.50;;;17.30;71.70;;;;;;5059090;28;20102;-73
2023/10/31 06:53:07;;;;;;;0.50;0.50;;;17.30;71.70;;;;;;5053968;28;20056;-73
2023/10/31 06:55:32;;;;;;;0.60;0.60;;;17.30;71.80;;;;;;5060656;28;20055;-72
2023/10/31 06:57:58;;;;;;;0.47;0.47;;;17.30;71.70;;;;;;5056375;28;20036;-72
2023/10/31 07:00:24;;;;;;;0.40;0.40;;;17.30;71.70;;;;;;5062576;28;20529;-73
2023/10/31 07:02:49;;;;;;;0.60;0.60;;;17.30;71.80;;;;;;5058200;28;20202;-73
2023/10/31 07:05:16;;;;;;;0.60;0.60;;;17.30;71.70;;;;;;5056970;28;20044;-72
2023/10/31 07:07:41;;;;;;;0.60;0.60;;;17.30;71.80;;;;;;5056849;28;20131;-74
2023/10/31 07:10:07;;;;;;;0.60;0.60;;;17.30;72.50;;;;;;5061224;28;20167;-73
2023/10/31 07:12:33;;;;;;;0.63;0.40;;;17.30;71.70;;;;;;5064647;28;20041;-73
2023/10/31 07:14:58;;;;;;;1.30;0.82;;;17.30;71.80;;;;;;5064665;28;20044;-73
2023/10/31 07:17:25;;;;;;;0.98;0.65;;;17.30;72.10;;;;;;5064027;28;20033;-73
2023/10/31 07:19:51;;;;;;;0.80;0.60;;;17.30;72.10;;;;;;5064503;28;20083;-73
2023/10/31 07:22:16;;;;;;;0.50;0.50;;;17.30;72.10;;;;;;5066048;28;20037;-73
2023/10/31 07:24:42;;;;;;;0.95;0.65;;;17.30;72.20;;;;;;5061984;28;20513;-73
2023/10/31 07:27:11;;;;;;;0.60;0.45;;;17.40;72.20;;;;;;5066226;28;20041;-73
2023/10/31 07:29:40;;;;;;;0.80;0.80;;;17.40;72.20;;;;;;4707353;28;9999770;-73
2023/10/31 07:32:07;;;;;;;0.60;0.50;;;17.40;72.10;;;;;;5059507;28;20114;-73
2023/10/31 07:34:33;;;;;;;0.90;0.70;;;17.40;72.20;;;;;;5059645;28;20115;-73
2023/10/31 07:36:58;;;;;;;0.70;0.70;;;17.40;72.20;;;;;;5064603;28;20079;-73
2023/10/31 07:39:24;;;;;;;1.10;0.60;;;17.40;72.20;;;;;;5047748;28;20037;-73
2023/10/31 07:41:50;;;;;;;0.93;0.77;;;17.40;72.20;;;;;;5059534;28;20120;-73
2023/10/31 07:44:15;;;;;;;3.60;0.40;;;17.40;72.20;;;;;;5060178;28;20044;-73
2023/10/31 07:46:41;;;;;;;0.60;0.60;;;17.40;72.20;;;;;;5058125;28;20037;-74
2023/10/31 07:49:07;;;;;;;3.70;0.65;;;17.40;72.20;;;;;;5061502;28;20086;-75
2023/10/31 07:51:32;;;;;;;1.55;0.63;;;17.40;72.00;;;;;;5057787;28;20041;-74
2023/10/31 07:53:58;;;;;;;0.40;0.40;;;17.40;72.20;;;;;;5058612;28;20036;-74
2023/10/31 07:56:25;;;;;;;0.57;0.57;;;17.40;71.80;;;;;;5064603;28;20954;-74
2023/10/31 07:58:51;;;;;;;0.98;0.60;;;17.50;72.00;;;;;;5055721;28;20040;-74
2023/10/31 08:01:20;;;;;;;0.47;0.40;;;17.40;72.00;;;;;;5059321;28;20051;-73
2023/10/31 08:03:48;;;;;;;0.50;0.50;;;17.50;72.20;;;;;;5061755;28;20570;-74
2023/10/31 08:06:14;;;;;;;1.33;0.60;;;17.40;72.00;;;;;;5098287;27;20162;-74
2023/10/31 08:08:39;;;;;;;1.35;0.65;;;17.40;72.60;;;;;;5061895;28;20345;-75
2023/10/31 08:11:09;;;;;;;0.60;0.60;;;17.50;72.50;;;;;;5059511;28;20060;-74
2023/10/31 08:13:35;;;;;;;1.88;0.60;;;17.50;72.80;;;;;;5058851;28;20041;-74
2023/10/31 08:16:01;;;;;;;0.80;0.60;;;17.50;72.30;;;;;;5061291;28;20056;-74
2023/10/31 08:18:27;;;;;;;1.10;0.90;;;17.50;72.30;;;;;;5065266;28;20472;-74
2023/10/31 08:20:52;;;;;;;1.27;1.00;;;17.50;72.40;;;;;;5061819;28;20040;-74
2023/10/31 08:23:18;;;;;;;1.10;0.63;;;17.50;72.40;;;;;;5056950;28;20037;-74
2023/10/31 08:25:44;;;;;;;1.17;0.70;;;17.60;72.30;;;;;;5060914;28;20189;-74
2023/10/31 08:28:11;;;;;;;1.10;0.77;;;17.60;72.30;;;;;;5061418;28;20059;-74
2023/10/31 08:30:38;;;;;;;0.80;0.80;;;17.60;72.10;;;;;;5092291;28;20037;-74
2023/10/31 08:33:03;;;;;;;0.80;0.68;;;17.60;72.30;;;;;;5063330;28;20037;-74
2023/10/31 08:35:29;;;;;;;1.70;0.52;;;17.70;72.00;;;;;;5059182;28;20040;-74
2023/10/31 08:37:55;;;;;;;1.83;0.75;;;17.60;72.30;;;;;;5063109;28;20497;-74
2023/10/31 08:40:20;;;;;;;0.75;0.60;;;17.60;72.30;;;;;;5064281;28;20051;-73
2023/10/31 08:42:46;;;;;;;1.58;0.70;;;17.60;72.30;;;;;;5060062;28;20569;-74
2023/10/31 08:45:11;;;;;;;0.60;0.40;;;17.60;72.30;;;;;;5060271;28;20048;-74
2023/10/31 08:47:37;;;;;;;0.60;0.60;;;17.60;72.30;;;;;;5060092;28;20036;-74
2023/10/31 08:50:03;;;;;;;0.80;0.70;;;17.60;72.30;;;;;;5058346;28;20125;-74
2023/10/31 08:52:29;;;;;;;0.57;0.57;;;17.60;72.30;;;;;;5059891;28;20056;-74
2023/10/31 08:54:54;;;;;;;1.08;0.70;;;17.60;72.30;;;;;;5058834;28;20166;-75
2023/10/31 08:57:20;;;;;;;0.73;0.50;;;17.60;72.60;;;;;;5066407;28;20041;-74
2023/10/31 08:59:45;;;;;;;2.42;2.22;;;17.60;73.60;;;;;;5095570;27;20809;-76
2023/10/31 09:02:11;;;;;;;3.75;3.10;;;17.60;73.00;;;;;;5061583;28;20116;-74
2023/10/31 09:04:36;;;;;;;3.47;3.17;;;17.60;73.30;;;;;;5069283;28;20504;-74
2023/10/31 09:07:02;;;;;;;4.20;3.83;;;17.70;73.40;;;;;;5061026;28;20052;-73
2023/10/31 09:09:28;;;;;;;4.57;4.28;;;17.70;73.50;;;;;;5066094;28;20045;-74
2023/10/31 09:11:53;;;;;;;3.65;3.35;;;17.70;73.40;;;;;;5049437;28;20047;-73
2023/10/31 09:14:19;;;;;;;5.10;3.03;;;17.70;73.20;;;;;;5059973;28;20052;-73
2023/10/31 09:16:45;;;;;;;2.70;2.50;;;17.70;73.10;;;;;;5094831;28;20036;-73
2023/10/31 09:19:10;;;;;;;2.35;2.15;;;17.70;73.10;;;;;;5062257;28;20036;-74
2023/10/31 09:21:36;;;;;;;2.45;1.65;;;17.70;73.00;;;;;;5063760;28;20056;-73
2023/10/31 09:24:02;;;;;;;2.05;1.77;;;17.70;73.00;;;;;;5057657;28;20041;-73
2023/10/31 09:26:28;;;;;;;2.13;2.00;;;17.70;73.10;;;;;;5063196;28;20061;-73
2023/10/31 09:28:53;;;;;;;1.92;1.83;;;17.70;73.30;;;;;;5063856;28;20075;-74
2023/10/31 09:31:19;;;;;;;2.35;1.65;;;17.70;73.30;;;;;;5063052;28;20052;-74
2023/10/31 09:33:45;;;;;;;1.80;1.70;;;17.70;73.10;;;;;;5062614;28;20055;-75
2023/10/31 09:36:11;;;;;;;2.05;1.90;;;17.70;73.10;;;;;;5059466;28;20058;-75
2023/10/31 09:38:36;;;;;;;3.15;1.60;;;17.70;73.10;;;;;;5086939;27;20694;-76
2023/10/31 09:41:02;;;;;;;2.38;1.33;;;17.70;73.10;;;;;;5062801;28;20047;-75
2023/10/31 09:43:28;;;;;;;3.30;1.77;;;17.70;73.10;;;;;;5059965;28;20029;-75
2023/10/31 09:45:54;;;;;;;1.70;1.60;;;17.70;73.20;;;;;;5049026;28;20659;-74
2023/10/31 09:48:19;;;;;;;1.80;1.70;;;17.70;73.00;;;;;;5062916;28;20033;-72
2023/10/31 09:50:46;;;;;;;2.65;1.45;;;17.70;73.10;;;;;;5060320;28;20045;-74
2023/10/31 09:53:12;;;;;;;3.33;2.03;;;17.70;73.10;;;;;;5062183;28;20041;-75
2023/10/31 09:55:38;;;;;;;2.40;1.40;;;17.70;73.10;;;;;;5045386;28;20066;-75
2023/10/31 09:58:03;;;;;;;1.40;1.30;;;17.80;73.20;;;;;;5089242;28;20425;-74
2023/10/31 10:00:29;;;;;;;2.95;1.33;;;17.80;73.10;;;;;;5065338;28;20486;-74
2023/10/31 10:02:55;;;;;;;1.70;1.60;;;17.80;73.20;;;;;;5043916;28;20409;-75
2023/10/31 10:05:20;;;;;;;1.83;1.73;;;17.80;73.20;;;;;;5059689;28;20078;-73
2023/10/31 10:07:46;;;;;;;1.95;1.70;;;17.80;73.10;;;;;;5063717;28;20041;-73
2023/10/31 10:10:12;;;;;;;1.88;1.70;;;17.90;73.00;;;;;;5058443;28;20051;-73
2023/10/31 10:12:37;;;;;;;1.35;1.23;;;17.90;73.00;;;;;;5048425;28;20056;-73
2023/10/31 10:15:04;;;;;;;1.58;1.27;;;17.90;72.90;;;;;;5058609;28;20086;-73
2023/10/31 10:17:29;;;;;;;1.30;1.20;;;17.90;73.00;;;;;;5063002;28;20056;-73
2023/10/31 10:20:08;;;;;;;1.30;1.20;;;17.90;73.10;;;;;;5057658;28;20115;-74
2023/10/31 10:22:39;;;;;;;2.00;1.42;;;17.90;73.00;;;;;;5060331;28;20089;-73
2023/10/31 10:25:16;;;;;;;1.40;1.30;;;18.00;73.00;;;;;;5061144;28;20033;-73
2023/10/31 10:27:43;;;;;;;1.48;1.38;;;17.90;73.00;;;;;;5058503;28;20045;-73
2023/10/31 10:30:09;;;;;;;1.70;1.48;;;17.90;72.90;;;;;;5053912;28;20692;-73
2023/10/31 10:32:34;;;;;;;2.40;1.52;;;17.90;73.00;;;;;;5057024;28;20041;-74
2023/10/31 10:35:03;;;;;;;1.45;1.35;;;17.90;73.00;;;;;;5075000;28;20134;-74
2023/10/31 10:37:30;;;;;;;2.15;1.02;;;17.90;73.00;;;;;;5062497;28;20155;-75
2023/10/31 10:39:56;;;;;;;1.65;1.55;;;17.90;73.10;;;;;;5060655;28;20037;-74
2023/10/31 10:42:45;;;;;;;1.67;1.20;;;17.90;73.20;;;;;;5060416;28;20044;-75
2023/10/31 10:45:11;;;;;;;1.23;1.13;;;17.90;73.00;;;;;;5053528;28;20056;-75
2023/10/31 10:47:37;;;;;;;1.67;1.45;;;18.00;73.10;;;;;;5041116;28;20045;-75
2023/10/31 10:50:03;;;;;;;1.98;1.52;;;17.90;73.00;;;;;;5074314;28;20043;-75
2023/10/31 10:52:53;;;;;;;1.50;1.23;;;17.90;73.10;;;;;;5042602;28;20037;-75
2023/10/31 10:55:25;;;;;;;3.35;1.40;;;17.90;73.10;;;;;;5046996;28;20564;-75
2023/10/31 10:58:30;;;;;;;2.85;1.00;;;18.00;73.20;;;;;;5046527;28;20102;-73
2023/10/31 11:00:55;;;;;;;1.80;1.08;;;18.00;73.20;;;;;;5084492;28;20041;-74
2023/10/31 11:03:21;;;;;;;1.15;1.05;;;17.90;73.10;;;;;;5064527;28;20055;-73
2023/10/31 11:05:46;;;;;;;1.02;0.93;;;18.00;73.30;;;;;;5055937;28;20452;-73
2023/10/31 11:08:12;;;;;;;1.13;1.02;;;18.00;73.30;;;;;;5060489;28;20072;-73
2023/10/31 11:10:38;;;;;;;2.05;0.90;;;18.00;73.40;;;;;;5046140;28;20036;-73
2023/10/31 11:13:03;;;;;;;1.50;1.40;;;18.00;73.30;;;;;;5058317;28;20431;-72
2023/10/31 11:15:29;;;;;;;1.77;1.08;;;18.00;73.30;;;;;;5064922;28;20072;-73
2023/10/31 11:17:54;;;;;;;1.30;1.00;;;18.00;73.20;;;;;;5057822;28;20044;-73
2023/10/31 11:20:20;;;;;;;1.33;1.23;;;18.00;73.20;;;;;;5090778;28;20040;-73
2023/10/31 11:22:48;;;;;;;0.90;0.80;;;18.00;73.40;;;;;;4368843;28;10000704;-73
2023/10/31 11:25:15;;;;;;;1.48;1.02;;;18.00;73.10;;;;;;5052119;28;20109;-73
2023/10/31 11:27:41;;;;;;;1.13;1.00;;;18.00;73.50;;;;;;5059663;28;20043;-73
2023/10/31 11:30:28;;;;;;;3.58;1.30;;;18.00;73.50;;;;;;5059512;28;20446;-73
2023/10/31 11:32:58;;;;;;;1.30;1.08;;;18.00;73.50;;;;;;5050254;28;20116;-73
2023/10/31 11:35:24;;;;;;;1.58;0.80;;;18.00;73.50;;;;;;5051838;28;20059;-74
2023/10/31 11:37:50;;;;;;;2.80;1.10;;;18.00;73.50;;;;;;5058492;28;20052;-73
2023/10/31 11:40:17;;;;;;;1.00;0.90;;;18.00;73.60;;;;;;5054777;28;20057;-74
2023/10/31 11:42:42;;;;;;;1.30;1.20;;;18.00;73.50;;;;;;5056949;28;20044;-73
2023/10/31 11:45:08;;;;;;;0.80;0.80;;;18.00;73.50;;;;;;5061833;28;20081;-74
2023/10/31 11:47:49;;;;;;;0.85;0.85;;;18.00;73.50;;;;;;5055260;28;20041;-73
2023/10/31 11:50:15;;;;;;;2.50;1.30;;;18.00;73.50;;;;;;5055254;28;20564;-74
2023/10/31 11:52:41;;;;;;;1.50;1.00;;;18.00;73.50;;;;;;5034163;28;20170;-73
2023/10/31 11:55:12;;;;;;;2.03;1.10;;;18.00;73.50;;;;;;5056982;28;20127;-73
2023/10/31 11:57:38;;;;;;;1.17;1.13;;;18.00;73.40;;;;;;5057154;28;20051;-73
2023/10/31 12:00:05;;;;;;;0.90;0.82;;;18.00;73.40;;;;;;5074307;28;20045;-74
2023/10/31 12:02:31;;;;;;;1.67;1.00;;;18.00;73.40;;;;;;5055646;28;20044;-74
2023/10/31 12:05:09;;;;;;;0.90;0.88;;;18.00;73.40;;;;;;5059350;28;20954;-73
2023/10/31 12:07:44;;;;;;;2.17;1.15;;;18.00;73.40;;;;;;5060707;28;20052;-72
2023/10/31 12:10:10;;;;;;;1.70;1.13;;;18.00;73.40;;;;;;5063274;28;20032;-72
2023/10/31 12:12:35;;;;;;;1.40;0.90;;;18.00;73.40;;;;;;5062684;28;20050;-72
2023/10/31 12:15:08;;;;;;;1.20;1.00;;;18.00;73.30;;;;;;5059398;28;20056;-72
2023/10/31 12:17:34;;;;;;;1.83;0.80;;;18.00;73.30;;;;;;5058478;28;20036;-71
2023/10/31 12:20:07;;;;;;;1.02;0.90;;;18.00;73.30;;;;;;5061765;28;20037;-72
2023/10/31 12:22:33;;;;;;;3.15;1.10;;;18.00;73.30;;;;;;5058816;28;20106;-72
2023/10/31 12:25:08;;;;;;;4.30;0.98;;;18.00;73.30;;;;;;5057039;28;20047;-72
2023/10/31 12:27:44;;;;;;;0.75;0.70;;;18.00;73.30;;;;;;5094197;27;20041;-72
2023/10/31 12:30:10;;;;;;;1.00;0.70;;;18.00;73.40;;;;;;5057221;28;20063;-72
2023/10/31 12:32:36;;;;;;;0.82;0.70;;;18.00;73.40;;;;;;5059332;28;20044;-71
2023/10/31 12:35:01;;;;;;;1.40;0.70;;;18.00;73.50;;;;;;5060316;28;20036;-71
2023/10/31 12:37:27;;;;;;;1.85;0.80;;;18.00;74.10;;;;;;5060987;28;20041;-72
2023/10/31 12:39:52;;;;;;;0.88;0.63;;;18.10;74.50;;;;;;5058998;28;20314;-71
2023/10/31 12:42:18;;;;;;;0.70;0.70;;;18.10;75.10;;;;;;5073182;28;20053;-72
2023/10/31 12:44:43;;;;;;;3.42;1.13;;;18.00;74.70;;;;;;5060316;28;20113;-72